createdAt,value
2022-10-31T00:01:41.410Z,51.40
2022-10-31T00:04:10.112Z,51.30
2022-10-31T00:06:38.625Z,51.30
2022-10-31T00:09:07.830Z,51.20
2022-10-31T00:11:37.664Z,51.10
2022-10-31T00:14:06.658Z,51.10
2022-10-31T00:16:35.209Z,51.20
2022-10-31T00:19:07.962Z,51.10
2022-10-31T00:21:37.494Z,51.10
2022-10-31T00:24:07.463Z,51.10
2022-10-31T00:26:37.444Z,51.20
2022-10-31T00:29:06.665Z,51.10
2022-10-31T00:31:35.624Z,51.10
2022-10-31T00:34:04.925Z,51.00
2022-10-31T00:36:33.496Z,51.00
2022-10-31T00:39:02.745Z,51.10
2022-10-31T00:41:31.368Z,51.00
2022-10-31T00:44:01.506Z,51.00
2022-10-31T00:46:30.056Z,51.00
2022-10-31T00:48:58.766Z,50.90
2022-10-31T00:51:27.411Z,50.90
2022-10-31T00:53:56.159Z,50.70
2022-10-31T00:56:24.744Z,50.70
2022-10-31T00:58:53.874Z,51.40
2022-10-31T01:01:24.324Z,50.70
2022-10-31T01:03:53.367Z,50.70
2022-10-31T01:06:21.887Z,50.80
2022-10-31T01:08:50.732Z,50.80
2022-10-31T01:11:23.652Z,50.90
2022-10-31T01:13:55.215Z,50.80
2022-10-31T01:16:28.394Z,50.90
2022-10-31T01:18:58.485Z,50.90
2022-10-31T01:21:31.820Z,51.00
2022-10-31T01:24:03.103Z,51.00
2022-10-31T01:26:34.458Z,51.10
2022-10-31T01:29:07.366Z,51.10
2022-10-31T01:31:41.308Z,51.20
2022-10-31T01:34:17.017Z,51.10
2022-10-31T01:36:48.337Z,51.00
2022-10-31T01:39:17.892Z,51.10
2022-10-31T01:41:50.964Z,51.00
2022-10-31T01:45:02.755Z,51.00
2022-10-31T01:47:47.742Z,51.00
2022-10-31T01:50:30.408Z,51.00
2022-10-31T01:53:03.277Z,51.00
2022-10-31T01:55:37.008Z,51.10
2022-10-31T01:58:12.531Z,51.20
2022-10-31T02:00:44.410Z,51.20
2022-10-31T02:03:14.669Z,51.30
2022-10-31T02:05:45.352Z,51.30
2022-10-31T02:08:20.561Z,51.20
2022-10-31T02:10:52.136Z,51.20
2022-10-31T02:13:22.231Z,51.20
2022-10-31T02:15:56.014Z,51.20
2022-10-31T02:18:31.363Z,51.30
2022-10-31T02:21:14.088Z,51.60
2022-10-31T02:24:31.157Z,51.70
2022-10-31T02:27:23.578Z,51.70
2022-10-31T02:30:14.381Z,51.80
2022-10-31T02:33:16.900Z,52.00
2022-10-31T02:36:02.958Z,52.10
2022-10-31T02:38:51.419Z,52.00
2022-10-31T02:41:43.134Z,52.00
2022-10-31T02:44:23.113Z,52.50
2022-10-31T02:46:56.871Z,51.80
2022-10-31T02:49:36.106Z,51.80
2022-10-31T02:52:04.716Z,51.90
2022-10-31T02:54:33.924Z,51.90
2022-10-31T02:57:09.243Z,52.00
2022-10-31T02:59:48.422Z,52.10
2022-10-31T03:02:53.922Z,51.90
2022-10-31T03:05:51.154Z,51.80
2022-10-31T03:08:32.026Z,51.80
2022-10-31T03:11:04.955Z,51.70
2022-10-31T03:13:43.130Z,51.70
2022-10-31T03:16:19.779Z,51.80
2022-10-31T03:18:58.395Z,51.70
2022-10-31T03:21:38.182Z,51.70
2022-10-31T03:24:10.633Z,51.60
2022-10-31T03:26:46.802Z,51.50
2022-10-31T03:29:21.384Z,51.30
2022-10-31T03:31:56.485Z,51.30
2022-10-31T03:34:26.011Z,51.30
2022-10-31T03:37:01.795Z,51.40
2022-10-31T03:39:32.732Z,51.50
2022-10-31T03:42:07.909Z,51.50
2022-10-31T03:44:40.031Z,51.60
2022-10-31T03:47:09.700Z,51.60
2022-10-31T03:49:38.800Z,52.40
2022-10-31T03:52:21.297Z,51.80
2022-10-31T03:54:58.634Z,52.00
2022-10-31T03:57:41.464Z,52.20
2022-10-31T04:00:13.575Z,52.30
2022-10-31T04:02:58.174Z,52.50
2022-10-31T04:05:30.212Z,52.60
2022-10-31T04:08:10.056Z,52.50
2022-10-31T04:10:40.806Z,52.30
2022-10-31T04:16:00.726Z,51.80
2022-10-31T04:18:31.033Z,51.60
2022-10-31T04:21:05.062Z,51.60
2022-10-31T04:23:36.481Z,51.60
2022-10-31T04:26:15.346Z,51.40
2022-10-31T04:28:46.383Z,51.30
2022-10-31T04:31:16.166Z,51.40
2022-10-31T04:33:47.410Z,51.30
2022-10-31T04:36:16.155Z,51.30
2022-10-31T04:38:46.553Z,51.20
2022-10-31T04:41:28.467Z,51.20
2022-10-31T04:44:03.387Z,51.20
2022-10-31T04:46:32.415Z,51.20
2022-10-31T04:49:02.013Z,51.20
2022-10-31T04:51:30.543Z,51.20
2022-10-31T04:54:00.734Z,51.20
2022-10-31T04:56:47.748Z,51.30
2022-10-31T04:59:22.056Z,51.40
2022-10-31T05:01:54.377Z,51.50
2022-10-31T05:04:43.451Z,51.60
2022-10-31T05:07:12.106Z,51.50
2022-10-31T05:09:42.239Z,51.50
2022-10-31T05:12:10.798Z,51.50
2022-10-31T05:14:58.151Z,51.30
2022-10-31T05:17:45.666Z,51.20
2022-10-31T05:20:33.648Z,51.20
2022-10-31T05:23:28.012Z,51.10
2022-10-31T05:25:58.138Z,51.20
2022-10-31T05:28:27.082Z,51.30
2022-10-31T05:30:56.427Z,52.30
2022-10-31T05:33:25.112Z,51.80
2022-10-31T05:36:07.023Z,52.00
2022-10-31T05:38:38.642Z,52.10
2022-10-31T05:41:23.747Z,52.20
2022-10-31T05:43:52.631Z,52.30
2022-10-31T05:46:26.398Z,52.60
2022-10-31T05:49:30.141Z,52.70
2022-10-31T05:52:30.944Z,52.80
2022-10-31T05:55:10.351Z,52.80
2022-10-31T05:57:44.109Z,52.80
2022-10-31T06:00:14.512Z,52.90
2022-10-31T06:02:50.421Z,53.00
2022-10-31T06:05:27.720Z,53.10
2022-10-31T06:07:57.732Z,53.20
2022-10-31T06:10:27.885Z,53.30
2022-10-31T06:12:59.183Z,53.40
2022-10-31T06:15:44.103Z,53.50
2022-10-31T06:18:14.288Z,53.60
2022-10-31T06:20:51.243Z,53.70
2022-10-31T06:23:19.981Z,53.70
2022-10-31T06:25:53.870Z,53.60
2022-10-31T06:28:23.969Z,53.60
2022-10-31T06:30:56.073Z,53.60
2022-10-31T06:33:25.768Z,53.50
2022-10-31T06:36:04.653Z,53.40
2022-10-31T06:38:34.060Z,53.40
2022-10-31T06:41:05.627Z,53.50
2022-10-31T06:43:51.544Z,53.60
2022-10-31T06:46:40.041Z,53.60
2022-10-31T06:49:31.958Z,53.50
2022-10-31T06:52:05.127Z,53.50
2022-10-31T06:54:34.338Z,53.40
2022-10-31T06:57:02.895Z,53.20
2022-10-31T06:59:32.935Z,53.20
2022-10-31T07:02:21.744Z,53.00
2022-10-31T07:04:51.791Z,53.10
2022-10-31T07:07:22.193Z,53.20
2022-10-31T07:09:52.444Z,53.20
2022-10-31T07:12:27.055Z,53.30
2022-10-31T07:15:02.275Z,53.30
2022-10-31T07:17:31.911Z,53.30
2022-10-31T07:20:02.643Z,53.10
2022-10-31T07:22:36.228Z,53.20
2022-10-31T07:25:07.878Z,53.00
2022-10-31T07:27:54.980Z,53.00
2022-10-31T07:30:25.283Z,53.00
2022-10-31T07:32:57.505Z,53.00
2022-10-31T07:35:35.872Z,53.80
2022-10-31T07:38:12.601Z,53.00
2022-10-31T07:40:42.949Z,53.20
2022-10-31T07:43:14.508Z,53.20
2022-10-31T07:46:07.825Z,53.20
2022-10-31T07:48:58.907Z,53.40
2022-10-31T07:51:46.726Z,53.40
2022-10-31T07:54:33.944Z,53.40
2022-10-31T07:57:02.705Z,53.40
2022-10-31T07:59:31.421Z,53.40
2022-10-31T08:02:01.557Z,53.70
2022-10-31T08:04:50.566Z,53.60
2022-10-31T08:07:39.328Z,54.00
2022-10-31T08:10:14.098Z,53.30
2022-10-31T08:12:42.972Z,53.40
2022-10-31T08:15:12.334Z,53.20
2022-10-31T08:17:42.476Z,53.00
2022-10-31T08:20:12.912Z,53.10
2022-10-31T08:22:56.615Z,52.50
2022-10-31T08:25:25.880Z,52.70
2022-10-31T08:27:57.639Z,52.80
2022-10-31T08:30:30.338Z,52.20
2022-10-31T08:33:20.586Z,52.00
2022-10-31T08:36:08.390Z,51.70
2022-10-31T08:39:00.650Z,51.80
2022-10-31T08:41:31.589Z,51.90
2022-10-31T08:44:02.109Z,51.90
2022-10-31T08:46:30.730Z,52.20
2022-10-31T08:49:00.965Z,52.20
2022-10-31T08:51:30.235Z,52.20
2022-10-31T08:53:59.303Z,52.40
2022-10-31T08:56:46.539Z,52.50
2022-10-31T08:59:30.183Z,52.60
2022-10-31T09:02:17.276Z,52.50
2022-10-31T09:04:47.603Z,53.00
2022-10-31T09:07:20.953Z,53.20
2022-10-31T09:09:50.445Z,53.00
2022-10-31T09:12:21.299Z,53.00
2022-10-31T09:15:09.730Z,53.10
2022-10-31T09:18:01.971Z,53.50
2022-10-31T09:20:44.606Z,53.60
2022-10-31T09:23:17.656Z,54.40
2022-10-31T09:25:50.768Z,53.80
2022-10-31T09:28:38.197Z,53.90
2022-10-31T09:31:15.536Z,53.80
2022-10-31T09:34:07.508Z,53.50
2022-10-31T09:36:40.838Z,53.40
2022-10-31T09:39:14.089Z,53.40
2022-10-31T09:42:29.144Z,53.30
2022-10-31T09:45:12.270Z,53.10
2022-10-31T09:48:01.422Z,53.00
2022-10-31T09:50:43.890Z,53.00
2022-10-31T09:53:53.299Z,52.40
2022-10-31T09:56:27.467Z,52.60
2022-10-31T09:59:02.735Z,52.70
2022-10-31T10:01:44.829Z,52.90
2022-10-31T10:04:36.892Z,52.50
2022-10-31T10:07:24.654Z,52.20
2022-10-31T10:10:34.985Z,52.30
2022-10-31T10:13:54.665Z,52.30
2022-10-31T10:16:55.120Z,52.00
2022-10-31T10:19:44.776Z,52.10
2022-10-31T10:22:26.465Z,52.40
2022-10-31T10:25:13.204Z,52.10
2022-10-31T10:28:00.431Z,52.10
2022-10-31T10:30:41.630Z,52.00
2022-10-31T10:33:20.715Z,52.10
2022-10-31T10:35:54.528Z,52.30
2022-10-31T10:38:32.167Z,52.40
2022-10-31T10:41:07.036Z,52.30
2022-10-31T10:43:40.103Z,52.20
2022-10-31T10:46:39.059Z,52.40
2022-10-31T10:49:25.712Z,52.40
2022-10-31T10:52:19.315Z,52.70
2022-10-31T10:55:05.306Z,52.90
2022-10-31T10:57:51.313Z,53.20
2022-10-31T11:00:25.127Z,52.90
2022-10-31T11:02:54.876Z,52.70
2022-10-31T11:05:36.326Z,52.90
2022-10-31T11:08:06.313Z,53.10
2022-10-31T11:10:36.090Z,53.40
2022-10-31T11:13:22.394Z,53.00
2022-10-31T11:16:01.718Z,52.90
2022-10-31T11:18:34.074Z,52.70
2022-10-31T11:21:05.645Z,52.70
2022-10-31T11:23:35.437Z,52.70
2022-10-31T11:26:20.631Z,52.60
2022-10-31T11:28:59.779Z,52.80
2022-10-31T11:31:30.662Z,52.90
2022-10-31T11:34:07.694Z,53.10
2022-10-31T11:36:41.551Z,53.10
2022-10-31T11:39:22.775Z,52.60
2022-10-31T11:41:54.350Z,53.60
2022-10-31T11:44:28.539Z,53.10
2022-10-31T11:47:02.602Z,53.10
2022-10-31T11:49:36.168Z,53.10
2022-10-31T11:52:10.391Z,53.20
2022-10-31T11:54:47.743Z,53.20
2022-10-31T11:57:31.449Z,53.20
2022-10-31T12:00:05.389Z,53.20
2022-10-31T12:02:42.360Z,53.20
2022-10-31T12:05:25.132Z,53.20
2022-10-31T12:07:54.063Z,53.20
2022-10-31T12:10:32.774Z,53.20
2022-10-31T12:13:22.636Z,53.40
2022-10-31T12:16:02.730Z,53.90
2022-10-31T12:18:49.514Z,54.20
2022-10-31T12:21:36.408Z,54.30
2022-10-31T12:24:24.805Z,54.30
2022-10-31T12:27:09.236Z,55.20
2022-10-31T12:30:01.603Z,54.80
2022-10-31T12:32:43.237Z,54.70
2022-10-31T12:35:34.622Z,54.60
2022-10-31T12:38:41.109Z,54.50
2022-10-31T12:41:29.194Z,54.40
2022-10-31T12:44:07.864Z,54.40
2022-10-31T12:47:09.293Z,54.40
2022-10-31T12:49:54.703Z,54.80
2022-10-31T12:52:44.137Z,54.90
2022-10-31T12:55:34.130Z,55.20
2022-10-31T12:58:10.993Z,55.40
2022-10-31T13:00:46.556Z,55.50
2022-10-31T13:03:34.650Z,55.50
2022-10-31T13:06:11.613Z,55.50
2022-10-31T13:08:49.068Z,55.40
2022-10-31T13:11:24.066Z,55.40
2022-10-31T13:14:03.539Z,55.40
2022-10-31T13:16:38.853Z,55.30
2022-10-31T13:19:19.702Z,55.30
2022-10-31T13:22:02.057Z,55.40
2022-10-31T13:24:39.945Z,55.60
2022-10-31T13:27:22.043Z,55.90
2022-10-31T13:30:04.180Z,55.90
2022-10-31T13:32:44.278Z,55.90
2022-10-31T13:35:23.991Z,55.80
2022-10-31T13:38:06.865Z,55.80
2022-10-31T13:40:51.453Z,56.00
2022-10-31T13:43:44.104Z,56.00
2022-10-31T13:46:26.922Z,55.90
2022-10-31T13:48:55.754Z,55.90
2022-10-31T13:51:30.642Z,55.70
2022-10-31T13:54:02.597Z,55.50
2022-10-31T13:56:36.568Z,55.30
2022-10-31T13:59:23.839Z,55.20
2022-10-31T14:01:57.726Z,55.00
2022-10-31T14:04:34.439Z,54.90
2022-10-31T14:07:10.621Z,55.00
2022-10-31T14:09:50.498Z,54.90
2022-10-31T14:12:31.148Z,54.80
2022-10-31T14:15:07.134Z,54.70
2022-10-31T14:17:48.844Z,54.60
2022-10-31T14:20:39.118Z,54.60
2022-10-31T14:23:49.574Z,54.50
2022-10-31T14:26:34.149Z,54.50
2022-10-31T14:29:25.794Z,54.50
2022-10-31T14:31:59.247Z,54.50
2022-10-31T14:34:33.050Z,54.50
2022-10-31T14:37:34.975Z,54.50
2022-10-31T14:40:29.173Z,54.60
2022-10-31T14:43:58.854Z,54.70
2022-10-31T14:46:46.313Z,54.70
2022-10-31T14:49:41.096Z,54.70
2022-10-31T14:52:13.470Z,55.00
2022-10-31T14:54:48.985Z,55.40
2022-10-31T14:57:24.426Z,55.60
2022-10-31T15:00:00.848Z,55.60
2022-10-31T15:02:43.667Z,55.80
2022-10-31T15:05:14.941Z,55.90
2022-10-31T15:07:53.633Z,55.90
2022-10-31T15:10:26.534Z,56.10
2022-10-31T15:12:55.480Z,56.10
2022-10-31T15:15:27.421Z,56.10
2022-10-31T15:18:01.358Z,56.00
2022-10-31T15:20:44.747Z,56.00
2022-10-31T15:23:23.280Z,56.00
2022-10-31T15:25:52.159Z,56.00
2022-10-31T15:28:26.672Z,56.00
2022-10-31T15:30:57.914Z,56.80
2022-10-31T15:33:38.259Z,56.30
2022-10-31T15:36:21.518Z,56.20
2022-10-31T15:38:53.507Z,56.20
2022-10-31T15:41:31.010Z,56.20
2022-10-31T15:44:06.666Z,56.30
2022-10-31T15:46:35.878Z,56.20
2022-10-31T15:49:06.381Z,56.00
2022-10-31T15:51:38.377Z,56.00
2022-10-31T15:54:07.282Z,55.90
2022-10-31T15:56:35.887Z,55.80
2022-10-31T15:59:04.788Z,55.50
2022-10-31T16:01:35.618Z,55.40
2022-10-31T16:04:23.480Z,55.30
2022-10-31T16:07:02.977Z,55.40
2022-10-31T16:09:31.818Z,55.40
2022-10-31T16:12:01.037Z,55.50
2022-10-31T16:14:42.315Z,55.50
2022-10-31T16:17:15.865Z,55.50
2022-10-31T16:19:56.488Z,55.40
2022-10-31T16:22:29.109Z,55.40
2022-10-31T16:25:08.124Z,55.50
2022-10-31T16:27:39.661Z,55.80
2022-10-31T16:30:46.995Z,56.00
2022-10-31T16:33:28.765Z,56.10
2022-10-31T16:36:15.632Z,56.20
2022-10-31T16:38:49.907Z,56.20
2022-10-31T16:41:18.699Z,56.20
2022-10-31T16:43:52.208Z,56.30
2022-10-31T16:46:26.118Z,56.40
2022-10-31T16:48:56.180Z,56.50
2022-10-31T16:51:26.306Z,56.60
2022-10-31T16:53:56.108Z,56.60
2022-10-31T16:56:32.423Z,56.60
2022-10-31T16:59:03.410Z,56.70
2022-10-31T17:01:33.317Z,56.60
2022-10-31T17:04:02.014Z,56.60
2022-10-31T17:06:32.279Z,56.60
2022-10-31T17:09:00.885Z,56.60
2022-10-31T17:11:29.690Z,56.60
2022-10-31T17:13:58.444Z,56.60
2022-10-31T17:16:27.248Z,56.70
2022-10-31T17:18:55.860Z,56.60
2022-10-31T17:21:28.007Z,56.60
2022-10-31T17:23:57.924Z,56.50
2022-10-31T17:26:26.672Z,56.20
2022-10-31T17:28:55.235Z,56.20
2022-10-31T17:31:29.925Z,56.20
2022-10-31T17:34:02.092Z,56.10
2022-10-31T17:36:32.566Z,56.00
2022-10-31T17:39:03.360Z,56.00
2022-10-31T17:41:32.288Z,56.60
2022-10-31T17:44:01.400Z,55.90
2022-10-31T17:46:30.119Z,55.90
2022-10-31T17:49:00.915Z,55.80
2022-10-31T17:51:29.736Z,55.90
2022-10-31T17:53:59.530Z,56.00
2022-10-31T17:56:29.697Z,56.10
2022-10-31T17:58:58.437Z,55.90
2022-10-31T18:01:27.497Z,56.00
2022-10-31T18:03:56.131Z,56.00
2022-10-31T18:06:24.846Z,55.90
2022-10-31T18:08:53.498Z,55.80
2022-10-31T18:11:23.198Z,55.90
2022-10-31T18:13:58.894Z,56.00
2022-10-31T18:16:28.539Z,56.10
2022-10-31T18:19:01.782Z,56.20
2022-10-31T18:21:31.254Z,56.40
2022-10-31T18:24:02.970Z,56.50
2022-10-31T18:26:31.838Z,56.60
2022-10-31T18:29:02.214Z,56.60
2022-10-31T18:31:31.350Z,56.60
2022-10-31T18:34:00.107Z,56.60
2022-10-31T18:36:29.356Z,56.70
2022-10-31T18:38:58.149Z,56.70
2022-10-31T18:41:27.437Z,56.60
2022-10-31T18:43:59.890Z,56.50
2022-10-31T18:46:30.134Z,56.40
2022-10-31T18:48:58.848Z,56.40
2022-10-31T18:51:28.194Z,56.40
2022-10-31T18:53:59.871Z,56.30
2022-10-31T18:56:31.640Z,56.30
2022-10-31T18:59:02.279Z,56.30
2022-10-31T19:01:32.789Z,56.20
2022-10-31T19:04:02.023Z,56.20
2022-10-31T19:06:31.275Z,56.20
2022-10-31T19:09:01.593Z,56.20
2022-10-31T19:11:33.509Z,56.20
2022-10-31T19:14:02.704Z,56.30
2022-10-31T19:16:34.596Z,56.40
2022-10-31T19:19:03.139Z,56.40
2022-10-31T19:21:32.498Z,56.40
2022-10-31T19:24:01.797Z,56.40
2022-10-31T19:26:30.648Z,56.50
2022-10-31T19:28:59.143Z,56.50
2022-10-31T19:31:28.067Z,56.50
2022-10-31T19:33:57.986Z,56.40
2022-10-31T19:36:26.849Z,56.40
2022-10-31T19:38:55.454Z,56.30
2022-10-31T19:41:27.522Z,56.10
2022-10-31T19:43:59.455Z,56.10
2022-10-31T19:46:51.768Z,56.00
2022-10-31T19:49:18.411Z,56.00
2022-10-31T19:51:47.314Z,56.00
2022-10-31T19:54:16.124Z,56.00
2022-10-31T19:56:45.450Z,56.10
2022-10-31T19:59:14.185Z,56.10
2022-10-31T20:01:43.013Z,56.10
2022-10-31T20:04:12.331Z,56.10
2022-10-31T20:06:42.879Z,56.30
2022-10-31T20:09:14.151Z,56.00
2022-10-31T20:11:46.424Z,56.00
2022-10-31T20:14:17.738Z,56.00
2022-10-31T20:16:47.657Z,56.10
2022-10-31T20:19:16.238Z,56.10
2022-10-31T20:21:46.722Z,56.10
2022-10-31T20:24:15.245Z,56.10
2022-10-31T20:26:44.420Z,56.20
2022-10-31T20:29:15.992Z,56.30
2022-10-31T20:31:47.233Z,56.30
2022-10-31T20:34:16.220Z,56.40
2022-10-31T20:36:46.753Z,56.40
2022-10-31T20:39:15.391Z,56.40
2022-10-31T20:41:44.225Z,56.50
2022-10-31T20:44:12.774Z,56.50
2022-10-31T20:46:41.494Z,56.50
2022-10-31T20:49:10.294Z,56.50
2022-10-31T20:51:38.983Z,56.40
2022-10-31T20:54:09.715Z,56.30
2022-10-31T20:56:38.916Z,56.20
2022-10-31T20:59:08.220Z,56.20
2022-10-31T21:01:38.533Z,56.10
2022-10-31T21:04:09.844Z,56.00
2022-10-31T21:06:39.130Z,55.90
2022-10-31T21:09:09.841Z,55.80
2022-10-31T21:11:38.590Z,55.80
2022-10-31T21:14:07.196Z,55.60
2022-10-31T21:16:36.967Z,55.40
2022-10-31T21:19:06.690Z,55.40
2022-10-31T21:21:37.900Z,55.50
2022-10-31T21:24:13.353Z,55.60
2022-10-31T21:26:46.754Z,55.60
2022-10-31T21:29:16.737Z,55.60
2022-10-31T21:31:46.397Z,55.60
2022-10-31T21:34:15.183Z,55.60
2022-10-31T21:36:44.084Z,55.60
2022-10-31T21:39:14.094Z,55.60
2022-10-31T21:41:42.885Z,55.60
2022-10-31T21:44:11.415Z,55.50
2022-10-31T21:46:40.174Z,55.60
2022-10-31T21:49:08.741Z,55.60
2022-10-31T21:51:37.840Z,55.50
2022-10-31T21:54:24.072Z,55.50
2022-10-31T21:56:54.952Z,55.60
2022-10-31T21:59:23.585Z,55.70
2022-10-31T22:01:53.171Z,55.80
2022-10-31T22:04:21.761Z,56.00
2022-10-31T22:06:50.765Z,56.00
2022-10-31T22:09:20.181Z,56.10
2022-10-31T22:11:48.879Z,56.10
2022-10-31T22:14:18.987Z,56.50
2022-10-31T22:16:47.807Z,56.20
2022-10-31T22:19:16.388Z,56.10
2022-10-31T22:21:48.846Z,56.10
2022-10-31T22:24:19.054Z,56.20
2022-10-31T22:26:48.280Z,56.30
2022-10-31T22:29:22.968Z,56.20
2022-10-31T22:31:57.296Z,56.00
2022-10-31T22:34:29.166Z,56.10
2022-10-31T22:36:57.969Z,56.40
2022-10-31T22:39:26.509Z,55.80
2022-10-31T22:41:55.366Z,55.70
2022-10-31T22:44:25.269Z,55.70
2022-10-31T22:46:54.015Z,55.40
2022-10-31T22:49:22.518Z,55.20
2022-10-31T22:51:52.841Z,55.20
2022-10-31T22:54:21.349Z,55.00
2022-10-31T22:56:50.163Z,55.00
2022-10-31T22:59:18.776Z,54.90
2022-10-31T23:01:49.064Z,54.90
2022-10-31T23:04:17.889Z,55.40
2022-10-31T23:06:46.710Z,55.00
2022-10-31T23:09:18.568Z,54.80
2022-10-31T23:11:47.741Z,54.90
2022-10-31T23:14:20.769Z,54.80
2022-10-31T23:16:54.100Z,54.80
2022-10-31T23:19:26.473Z,54.50
2022-10-31T23:22:00.956Z,54.50
2022-10-31T23:24:34.486Z,54.60
2022-10-31T23:27:06.349Z,54.70
2022-10-31T23:29:37.158Z,54.60
2022-10-31T23:32:11.453Z,54.50
2022-10-31T23:34:40.219Z,54.40
2022-10-31T23:37:09.491Z,54.40
2022-10-31T23:39:38.421Z,54.40
2022-10-31T23:42:07.613Z,54.50
2022-10-31T23:44:36.577Z,54.60
2022-10-31T23:47:06.836Z,55.00
2022-10-31T23:49:35.864Z,54.30
2022-10-31T23:52:05.943Z,54.40
2022-10-31T23:54:35.296Z,54.50
2022-10-31T23:57:05.463Z,54.50
2022-10-31T23:59:34.286Z,54.50
